Time,TemperatureF,DewpointF,PressureIn,WindDirection,WindDirectionDegrees,WindSpeedMPH,WindSpeedGustMPH,Humidity,HourlyPrecipIn,Conditions,Clouds,dailyrainin,SoftwareType,DateUTC
2013-02-07 00:01:00,41.3,36.5,29.90,SSW,212,0.0,0.0,83,0.05,,SKC,0.00,VWS V13.01,2013-02-07 08:01:00,
2013-02-07 00:11:00,41.5,37.0,29.90,South,186,0.0,0.0,84,0.04,,SKC,0.00,VWS V13.01,2013-02-07 08:11:00,
2013-02-07 00:21:00,41.5,37.0,29.90,SSW,212,0.0,0.0,84,0.04,,SKC,0.00,VWS V13.01,2013-02-07 08:21:00,
2013-02-07 00:31:00,41.3,36.8,29.90,SSW,198,0.0,0.0,84,0.03,,SKC,0.00,VWS V13.01,2013-02-07 08:31:00,
2013-02-07 00:41:00,41.2,36.7,29.90,South,169,0.0,0.0,84,0.02,,SKC,0.00,VWS V13.01,2013-02-07 08:41:00,
2013-02-07 00:51:00,40.9,36.5,29.91,South,191,0.0,0.0,84,0.02,,SKC,0.01,VWS V13.01,2013-02-07 08:51:00,
2013-02-07 01:01:00,40.9,36.8,29.91,SSE,160,0.0,0.0,85,0.02,,SKC,0.01,VWS V13.01,2013-02-07 09:01:00,
2013-02-07 01:11:00,40.8,36.7,29.91,South,184,0.0,0.0,85,0.01,,SKC,0.01,VWS V13.01,2013-02-07 09:11:00,
2013-02-07 01:21:00,40.6,36.5,29.91,South,174,0.0,0.0,85,0.02,,SKC,0.02,VWS V13.01,2013-02-07 09:21:00,
2013-02-07 01:31:00,40.5,36.7,29.92,SSW,198,0.0,0.0,86,0.02,,SKC,0.02,VWS V13.01,2013-02-07 09:31:00,
2013-02-07 01:41:00,40.3,36.5,29.92,South,186,0.0,0.0,86,0.02,,SKC,0.02,VWS V13.01,2013-02-07 09:41:00,
2013-02-07 01:51:00,40.5,36.7,29.92,South,176,0.0,0.0,86,0.02,,SKC,0.02,VWS V13.01,2013-02-07 09:51:00,
2013-02-07 02:01:00,40.5,36.7,29.92,South,174,0.0,0.0,86,0.01,,SKC,0.02,VWS V13.01,2013-02-07 10:01:00,
2013-02-07 02:11:00,40.5,36.3,29.92,South,191,0.0,0.0,85,0.01,,SKC,0.02,VWS V13.01,2013-02-07 10:11:00,
2013-02-07 02:21:00,40.5,36.3,29.93,South,187,0.0,0.0,85,0.01,,SKC,0.02,VWS V13.01,2013-02-07 10:21:00,
2013-02-07 02:31:00,40.5,36.3,29.93,South,184,0.0,0.0,85,0.00,,SKC,0.02,VWS V13.01,2013-02-07 10:31:00,
2013-02-07 02:41:00,40.5,36.3,29.93,SSW,198,0.0,0.0,85,0.00,,SKC,0.02,VWS V13.01,2013-02-07 10:41:00,
2013-02-07 02:51:00,40.5,36.3,29.93,SW,219,0.0,0.0,85,0.00,,SKC,0.02,VWS V13.01,2013-02-07 10:51:00,
2013-02-07 03:01:00,40.5,36.3,29.93,SW,216,0.0,0.0,85,0.00,,SKC,0.02,VWS V13.01,2013-02-07 11:01:00,
2013-02-07 03:11:00,40.3,36.2,29.93,South,178,0.0,0.0,85,0.00,,SKC,0.02,VWS V13.01,2013-02-07 11:11:00,
2013-02-07 03:21:00,40.3,36.2,29.93,South,169,0.0,0.0,85,0.00,,SKC,0.02,VWS V13.01,2013-02-07 11:21:00,
2013-02-07 03:31:00,40.2,36.1,29.93,SSW,207,0.0,0.0,85,0.00,,SKC,0.02,VWS V13.01,2013-02-07 11:31:00,
2013-02-07 03:41:00,40.2,36.1,29.93,SSW,201,0.0,0.0,85,0.00,,SKC,0.02,VWS V13.01,2013-02-07 11:41:00,
2013-02-07 03:51:00,40.2,36.1,29.93,SSW,197,0.0,0.0,85,0.00,,SKC,0.02,VWS V13.01,2013-02-07 11:51:00,
2013-02-07 04:01:00,40.2,36.1,29.94,SSE,163,0.0,0.0,85,0.00,,SKC,0.02,VWS V13.01,2013-02-07 12:01:00,
2013-02-07 04:11:00,40.1,36.0,29.94,SSW,199,0.0,0.0,85,0.00,,SKC,0.02,VWS V13.01,2013-02-07 12:11:00,
2013-02-07 04:21:00,40.1,36.0,29.94,South,188,0.0,0.0,85,0.00,,SKC,0.02,VWS V13.01,2013-02-07 12:21:00,
2013-02-07 04:31:00,40.1,36.0,29.95,South,182,0.0,0.0,85,0.00,,SKC,0.02,VWS V13.01,2013-02-07 12:31:00,
2013-02-07 04:41:00,40.1,36.0,29.95,South,179,0.0,0.0,85,0.00,,SKC,0.02,VWS V13.01,2013-02-07 12:41:00,
2013-02-07 04:51:00,40.1,36.0,29.95,South,188,0.0,0.0,85,0.00,,SKC,0.02,VWS V13.01,2013-02-07 12:51:00,
2013-02-07 05:01:00,40.1,36.3,29.95,SSW,203,0.0,0.0,86,0.00,,SKC,0.02,VWS V13.01,2013-02-07 13:01:00,
2013-02-07 05:11:00,39.9,36.1,29.95,South,174,0.0,0.0,86,0.00,,SKC,0.02,VWS V13.01,2013-02-07 13:11:00,
2013-02-07 05:21:00,39.9,36.1,29.96,SSW,195,0.0,0.0,86,0.00,,SKC,0.02,VWS V13.01,2013-02-07 13:21:00,
2013-02-07 05:31:00,39.8,36.0,29.96,SSW,195,0.0,0.0,86,0.01,,SKC,0.03,VWS V13.01,2013-02-07 13:31:00,
2013-02-07 05:41:00,39.8,36.0,29.96,SSW,208,0.0,0.0,86,0.01,,SKC,0.03,VWS V13.01,2013-02-07 13:41:00,
2013-02-07 05:51:00,39.6,35.8,29.96,SSW,213,0.0,0.0,86,0.01,,SKC,0.03,VWS V13.01,2013-02-07 13:51:00,
2013-02-07 06:01:00,39.6,35.8,29.95,SW,214,0.0,0.0,86,0.01,,SKC,0.03,VWS V13.01,2013-02-07 14:01:00,
2013-02-07 06:11:00,39.5,35.7,29.95,SW,214,0.0,0.0,86,0.01,,SKC,0.03,VWS V13.01,2013-02-07 14:11:00,
2013-02-07 06:21:00,39.2,35.4,29.95,SSW,213,0.0,0.0,86,0.01,,SKC,0.03,VWS V13.01,2013-02-07 14:21:00,
2013-02-07 06:31:00,38.9,35.4,29.95,SSW,213,0.0,0.0,87,0.01,,SKC,0.03,VWS V13.01,2013-02-07 14:31:00,
2013-02-07 06:41:00,38.6,35.1,29.95,SW,214,0.0,0.0,87,0.00,,SKC,0.03,VWS V13.01,2013-02-07 14:41:00,
2013-02-07 06:51:00,38.5,35.0,29.95,SW,214,0.0,0.0,87,0.00,,SKC,0.03,VWS V13.01,2013-02-07 14:51:00,
2013-02-07 07:01:00,38.3,34.8,29.95,SW,214,0.0,0.0,87,0.00,,SKC,0.03,VWS V13.01,2013-02-07 15:01:00,
2013-02-07 07:11:00,38.3,34.8,29.95,SW,214,0.0,0.0,87,0.00,,SKC,0.03,VWS V13.01,2013-02-07 15:11:00,
2013-02-07 07:21:00,38.2,35.0,29.95,SSW,213,0.0,0.0,88,0.00,,SKC,0.03,VWS V13.01,2013-02-07 15:21:00,
2013-02-07 07:31:00,38.0,34.8,29.95,SSW,213,0.0,0.0,88,0.00,,SKC,0.03,VWS V13.01,2013-02-07 15:31:00,
2013-02-07 07:41:00,37.8,34.6,29.95,SSW,213,0.0,0.0,88,0.00,,SKC,0.03,VWS V13.01,2013-02-07 15:41:00,
2013-02-07 07:51:00,37.6,34.7,29.95,SSE,165,0.0,0.0,89,0.00,,SKC,0.03,VWS V13.01,2013-02-07 15:51:00,
2013-02-07 08:01:00,37.8,34.9,29.97,East,96,0.0,0.0,89,0.00,,SKC,0.03,VWS V13.01,2013-02-07 16:01:00,
2013-02-07 08:11:00,38.2,35.2,29.97,East,94,0.0,0.0,89,0.00,,SKC,0.03,VWS V13.01,2013-02-07 16:11:00,
2013-02-07 08:21:00,38.5,35.8,29.97,East,98,0.0,0.0,90,0.00,,SKC,0.03,VWS V13.01,2013-02-07 16:21:00,
2013-02-07 08:31:00,39.1,36.4,29.97,ESE,108,0.0,0.0,90,0.00,,SKC,0.03,VWS V13.01,2013-02-07 16:31:00,
2013-02-07 08:41:00,39.5,36.8,29.97,East,85,0.0,0.0,90,0.00,,SKC,0.03,VWS V13.01,2013-02-07 16:41:00,
2013-02-07 08:51:00,39.8,37.1,29.97,East,94,0.0,0.0,90,0.00,,SKC,0.03,VWS V13.01,2013-02-07 16:51:00,
2013-02-07 09:01:00,40.3,37.6,29.97,East,96,0.0,0.0,90,0.00,,SKC,0.03,VWS V13.01,2013-02-07 17:01:00,
2013-02-07 09:11:00,41.2,38.2,29.97,SSE,164,0.0,0.0,89,0.00,,SKC,0.03,VWS V13.01,2013-02-07 17:11:00,
2013-02-07 09:21:00,41.5,37.9,29.97,ESE,103,0.0,0.0,87,0.00,,SKC,0.03,VWS V13.01,2013-02-07 17:21:00,
2013-02-07 09:31:00,41.8,37.9,29.97,ESE,117,0.0,0.0,86,0.00,,SKC,0.03,VWS V13.01,2013-02-07 17:31:00,
2013-02-07 09:41:00,41.9,37.4,29.97,South,169,0.0,0.0,84,0.00,,SKC,0.03,VWS V13.01,2013-02-07 17:41:00,
2013-02-07 09:51:00,42.2,37.1,29.96,ESE,118,0.0,0.0,82,0.00,,SKC,0.03,VWS V13.01,2013-02-07 17:51:00,
2013-02-07 10:01:00,42.3,36.6,29.96,SW,226,0.0,0.0,80,0.00,,SKC,0.03,VWS V13.01,2013-02-07 18:01:00,
2013-02-07 10:11:00,42.8,36.4,29.96,South,174,0.0,0.0,78,0.00,,SKC,0.03,VWS V13.01,2013-02-07 18:11:00,
2013-02-07 10:21:00,43.2,35.8,29.97,South,177,0.0,0.0,75,0.00,,SKC,0.03,VWS V13.01,2013-02-07 18:21:00,
2013-02-07 10:31:00,43.5,35.8,29.97,SSW,198,0.0,0.0,74,0.00,,SKC,0.03,VWS V13.01,2013-02-07 18:31:00,
2013-02-07 10:41:00,43.9,35.8,29.97,WSW,237,0.0,0.0,73,0.00,,SKC,0.03,VWS V13.01,2013-02-07 18:41:00,
2013-02-07 10:51:00,44.3,36.2,29.97,SW,214,0.0,0.0,73,0.00,,SKC,0.03,VWS V13.01,2013-02-07 18:51:00,
2013-02-07 11:01:00,44.6,35.8,29.97,SSW,194,0.0,0.0,71,0.00,,SKC,0.03,VWS V13.01,2013-02-07 19:01:00,
2013-02-07 11:11:00,45.1,34.8,29.97,SSW,200,0.0,0.0,67,0.00,,SKC,0.03,VWS V13.01,2013-02-07 19:11:00,
2013-02-07 11:21:00,45.7,34.6,29.97,SW,217,0.0,0.0,65,0.00,,SKC,0.03,VWS V13.01,2013-02-07 19:21:00,
2013-02-07 11:31:00,45.7,35.0,29.97,SW,229,0.0,0.0,66,0.00,,SKC,0.03,VWS V13.01,2013-02-07 19:31:00,
2013-02-07 11:41:00,45.8,34.7,29.97,SW,234,0.0,0.0,65,0.00,,SKC,0.03,VWS V13.01,2013-02-07 19:41:00,
2013-02-07 11:51:00,46.0,34.1,29.97,WSW,241,0.0,0.0,63,0.00,,SKC,0.03,VWS V13.01,2013-02-07 19:51:00,
2013-02-07 12:01:00,46.1,34.2,29.95,SSW,196,0.0,0.0,63,0.00,,SKC,0.03,VWS V13.01,2013-02-07 20:01:00,
2013-02-07 12:11:00,46.5,34.2,29.95,SW,233,0.0,0.0,62,0.00,,SKC,0.03,VWS V13.01,2013-02-07 20:11:00,
2013-02-07 12:21:00,47.1,34.4,29.95,SW,215,0.0,0.0,61,0.00,,SKC,0.03,VWS V13.01,2013-02-07 20:21:00,
2013-02-07 12:31:00,47.3,33.7,29.95,SSW,205,0.0,0.0,59,0.00,,SKC,0.03,VWS V13.01,2013-02-07 20:31:00,
2013-02-07 12:41:00,47.0,34.3,29.95,SSW,207,0.0,0.0,61,0.00,,SKC,0.03,VWS V13.01,2013-02-07 20:41:00,
2013-02-07 12:51:00,47.0,33.8,29.94,South,191,0.0,0.0,60,0.00,,SKC,0.03,VWS V13.01,2013-02-07 20:51:00,
2013-02-07 13:01:00,46.8,34.5,29.94,SSW,200,0.0,0.0,62,0.00,,SKC,0.03,VWS V13.01,2013-02-07 21:01:00,
2013-02-07 13:11:00,46.1,35.8,29.94,SW,226,0.0,0.0,67,0.00,,SKC,0.03,VWS V13.01,2013-02-07 21:11:00,
2013-02-07 13:21:00,45.2,36.4,29.94,West,269,0.0,0.0,71,0.01,,SKC,0.04,VWS V13.01,2013-02-07 21:21:00,
2013-02-07 13:31:00,45.1,37.3,29.93,SSW,198,0.0,0.0,74,0.01,,SKC,0.04,VWS V13.01,2013-02-07 21:31:00,
2013-02-07 13:41:00,44.8,36.0,29.93,SSE,163,0.0,0.0,71,0.01,,SKC,0.04,VWS V13.01,2013-02-07 21:41:00,
2013-02-07 13:51:00,44.3,34.8,29.94,South,185,0.0,0.0,69,0.01,,SKC,0.04,VWS V13.01,2013-02-07 21:51:00,
2013-02-07 14:01:00,44.3,35.9,29.95,SSW,197,0.0,0.0,72,0.02,,SKC,0.05,VWS V13.01,2013-02-07 22:01:00,
2013-02-07 14:11:00,44.1,36.7,29.95,South,188,0.0,0.0,75,0.02,,SKC,0.05,VWS V13.01,2013-02-07 22:11:00,
2013-02-07 14:21:00,43.6,36.9,29.94,ESE,119,0.0,0.0,77,0.02,,SKC,0.05,VWS V13.01,2013-02-07 22:21:00,
2013-02-07 14:31:00,44.5,38.1,29.93,SE,140,0.0,0.0,78,0.01,,SKC,0.05,VWS V13.01,2013-02-07 22:31:00,
2013-02-07 14:41:00,44.6,37.2,29.93,SSE,165,0.0,0.0,75,0.01,,SKC,0.05,VWS V13.01,2013-02-07 22:41:00,
2013-02-07 14:51:00,44.3,36.2,29.93,ESE,113,0.0,0.0,73,0.01,,SKC,0.05,VWS V13.01,2013-02-07 22:51:00,
2013-02-07 15:01:00,44.1,36.7,29.94,ESE,118,0.0,0.0,75,0.01,,SKC,0.05,VWS V13.01,2013-02-07 23:01:00,
2013-02-07 15:11:00,43.9,37.2,29.94,East,94,0.0,0.0,77,0.00,,SKC,0.05,VWS V13.01,2013-02-07 23:11:00,
2013-02-07 15:21:00,43.5,37.1,29.94,East,97,0.0,0.0,78,0.00,,SKC,0.05,VWS V13.01,2013-02-07 23:21:00,
2013-02-07 15:31:00,42.9,36.8,29.94,East,98,0.0,0.0,79,0.00,,SKC,0.05,VWS V13.01,2013-02-07 23:31:00,
2013-02-07 15:41:00,42.9,36.8,29.94,East,101,0.0,0.0,79,0.00,,SKC,0.05,VWS V13.01,2013-02-07 23:41:00,
2013-02-07 15:51:00,43.1,37.0,29.95,WNW,297,0.0,0.0,79,0.00,,SKC,0.05,VWS V13.01,2013-02-07 23:51:00,
2013-02-07 16:01:00,41.9,35.5,29.95,WSW,253,0.0,0.0,78,0.00,,SKC,0.05,VWS V13.01,2013-02-08 00:01:00,
2013-02-07 16:11:00,41.2,35.5,29.95,SW,221,0.0,0.0,80,0.00,,SKC,0.05,VWS V13.01,2013-02-08 00:11:00,
2013-02-07 16:21:00,40.9,35.5,29.96,WNW,293,0.0,0.0,81,0.01,,SKC,0.06,VWS V13.01,2013-02-08 00:21:00,
2013-02-07 16:31:00,40.8,35.7,29.95,WNW,293,0.0,0.0,82,0.01,,SKC,0.06,VWS V13.01,2013-02-08 00:31:00,
2013-02-07 16:41:00,40.6,35.8,29.95,WNW,293,0.0,0.0,83,0.01,,SKC,0.06,VWS V13.01,2013-02-08 00:41:00,
2013-02-07 16:51:00,40.8,36.3,29.96,East,82,0.0,0.0,84,0.01,,SKC,0.06,VWS V13.01,2013-02-08 00:51:00,
2013-02-07 17:01:00,40.8,36.3,29.97,East,83,0.0,0.0,84,0.01,,SKC,0.06,VWS V13.01,2013-02-08 01:01:00,
2013-02-07 17:11:00,40.8,36.3,29.97,East,92,0.0,0.0,84,0.01,,SKC,0.06,VWS V13.01,2013-02-08 01:11:00,
2013-02-07 17:21:00,40.6,36.5,29.97,East,98,0.0,0.0,85,0.01,,SKC,0.06,VWS V13.01,2013-02-08 01:21:00,
2013-02-07 17:31:00,40.8,36.9,29.98,SE,134,0.0,0.0,86,0.01,,SKC,0.07,VWS V13.01,2013-02-08 01:31:00,
2013-02-07 17:41:00,40.6,36.8,29.98,SE,142,0.0,0.0,86,0.04,,SKC,0.10,VWS V13.01,2013-02-08 01:41:00,
2013-02-07 17:51:00,40.3,36.8,29.98,East,100,0.0,0.0,87,0.05,,SKC,0.11,VWS V13.01,2013-02-08 01:51:00,
2013-02-07 18:01:00,40.1,36.5,29.99,SE,133,0.0,0.0,87,0.05,,SKC,0.11,VWS V13.01,2013-02-08 02:01:00,
2013-02-07 18:11:00,40.1,36.5,29.99,South,174,0.0,0.0,87,0.05,,SKC,0.11,VWS V13.01,2013-02-08 02:11:00,
2013-02-07 18:21:00,40.1,36.5,29.99,South,179,0.0,0.0,87,0.06,,SKC,0.12,VWS V13.01,2013-02-08 02:21:00,
2013-02-07 18:31:00,40.1,36.5,29.99,South,179,0.0,0.0,87,0.07,,SKC,0.13,VWS V13.01,2013-02-08 02:31:00,
2013-02-07 18:41:00,40.1,36.5,29.99,ENE,62,0.0,0.0,87,0.06,,SKC,0.13,VWS V13.01,2013-02-08 02:41:00,
2013-02-07 18:51:00,39.9,36.3,29.99,ENE,62,0.0,0.0,87,0.03,,SKC,0.13,VWS V13.01,2013-02-08 02:51:00,
2013-02-07 19:01:00,39.8,36.5,30.00,NE,36,0.0,0.0,88,0.02,,SKC,0.13,VWS V13.01,2013-02-08 03:01:00,
2013-02-07 19:11:00,39.5,36.2,30.00,ESE,103,0.0,0.0,88,0.02,,SKC,0.13,VWS V13.01,2013-02-08 03:11:00,
2013-02-07 19:21:00,39.1,35.8,30.00,ESE,103,0.0,0.0,88,0.02,,SKC,0.13,VWS V13.01,2013-02-08 03:21:00,
2013-02-07 19:31:00,38.6,35.4,30.00,East,101,0.0,0.0,88,0.01,,SKC,0.13,VWS V13.01,2013-02-08 03:31:00,
2013-02-07 19:41:00,38.3,35.1,30.00,ESE,119,0.0,0.0,88,0.00,,SKC,0.13,VWS V13.01,2013-02-08 03:41:00,
2013-02-07 19:51:00,38.0,35.0,30.00,ESE,102,0.0,0.0,89,0.00,,SKC,0.13,VWS V13.01,2013-02-08 03:51:00,
2013-02-07 20:01:00,37.9,35.0,30.01,ESE,103,0.0,0.0,89,0.00,,SKC,0.13,VWS V13.01,2013-02-08 04:01:00,
2013-02-07 20:11:00,37.8,34.9,30.01,ESE,119,0.0,0.0,89,0.00,,SKC,0.13,VWS V13.01,2013-02-08 04:11:00,
2013-02-07 20:21:00,37.5,34.6,30.01,East,96,0.0,0.0,89,0.00,,SKC,0.13,VWS V13.01,2013-02-08 04:21:00,
2013-02-07 20:31:00,37.3,34.4,30.02,East,97,0.0,0.0,89,0.00,,SKC,0.13,VWS V13.01,2013-02-08 04:31:00,
2013-02-07 20:41:00,37.2,34.3,30.02,East,92,0.0,0.0,89,0.00,,SKC,0.13,VWS V13.01,2013-02-08 04:41:00,
2013-02-07 20:51:00,37.0,34.1,30.02,ENE,58,0.0,0.0,89,0.00,,SKC,0.13,VWS V13.01,2013-02-08 04:51:00,
2013-02-07 21:01:00,36.9,34.2,30.03,ENE,65,0.0,0.0,90,0.00,,SKC,0.13,VWS V13.01,2013-02-08 05:01:00,
2013-02-07 21:11:00,36.9,34.2,30.03,East,89,0.0,0.0,90,0.00,,SKC,0.13,VWS V13.01,2013-02-08 05:11:00,
2013-02-07 21:21:00,36.8,34.2,30.03,East,93,0.0,0.0,90,0.00,,SKC,0.13,VWS V13.01,2013-02-08 05:21:00,
2013-02-07 21:31:00,36.5,33.8,30.03,East,84,0.0,0.0,90,0.00,,SKC,0.13,VWS V13.01,2013-02-08 05:31:00,
2013-02-07 21:41:00,36.3,33.7,30.03,East,94,0.0,0.0,90,0.00,,SKC,0.13,VWS V13.01,2013-02-08 05:41:00,
2013-02-07 21:51:00,36.3,33.7,30.03,East,89,0.0,0.0,90,0.00,,SKC,0.13,VWS V13.01,2013-02-08 05:51:00,
2013-02-07 22:01:00,36.2,33.6,30.03,ESE,111,0.0,0.0,90,0.00,,SKC,0.13,VWS V13.01,2013-02-08 06:01:00,
2013-02-07 22:11:00,36.0,33.4,30.03,East,101,0.0,0.0,90,0.00,,SKC,0.13,VWS V13.01,2013-02-08 06:11:00,
2013-02-07 22:21:00,35.9,33.3,30.04,NNE,25,0.0,0.0,90,0.00,,SKC,0.13,VWS V13.01,2013-02-08 06:21:00,
2013-02-07 22:31:00,35.6,33.0,30.05,NNE,25,0.0,0.0,90,0.00,,SKC,0.13,VWS V13.01,2013-02-08 06:31:00,
2013-02-07 22:41:00,35.3,32.7,30.05,NNE,25,0.0,0.0,90,0.00,,SKC,0.13,VWS V13.01,2013-02-08 06:41:00,
2013-02-07 22:51:00,35.2,32.6,30.05,NNE,25,0.0,0.0,90,0.00,,SKC,0.13,VWS V13.01,2013-02-08 06:51:00,
2013-02-07 23:01:00,35.0,32.4,30.05,NNE,25,0.0,0.0,90,0.00,,SKC,0.13,VWS V13.01,2013-02-08 07:01:00,
2013-02-07 23:11:00,34.9,32.3,30.05,NNE,27,0.0,0.0,90,0.00,,SKC,0.13,VWS V13.01,2013-02-08 07:11:00,
2013-02-07 23:21:00,34.6,32.0,30.05,NNE,27,0.0,0.0,90,0.00,,SKC,0.13,VWS V13.01,2013-02-08 07:21:00,
2013-02-07 23:31:00,34.1,31.5,30.05,NNE,27,0.0,0.0,90,0.00,,SKC,0.13,VWS V13.01,2013-02-08 07:31:00,
2013-02-07 23:41:00,34.0,31.4,30.05,NNE,27,0.0,0.0,90,0.00,,SKC,0.13,VWS V13.01,2013-02-08 07:41:00,
2013-02-07 23:51:00,33.7,31.1,30.06,SE,124,0.0,0.0,90,0.00,,SKC,0.13,VWS V13.01,2013-02-08 07:51:00,